createdAt,value
2022-11-19T00:00:47.510Z,16.70
2022-11-19T00:05:50.511Z,16.60
2022-11-19T00:10:52.718Z,16.60
2022-11-19T00:15:54.941Z,16.60
2022-11-19T00:21:04.397Z,16.60
2022-11-19T00:26:11.569Z,16.60
2022-11-19T00:31:15.564Z,16.50
2022-11-19T00:36:18.079Z,16.60
2022-11-19T00:41:20.290Z,16.50
2022-11-19T00:46:28.402Z,16.50
2022-11-19T00:51:31.127Z,16.50
2022-11-19T00:56:33.310Z,16.60
2022-11-19T01:01:35.554Z,16.50
2022-11-19T01:06:38.141Z,16.50
2022-11-19T01:11:40.327Z,16.50
2022-11-19T01:16:42.832Z,16.50
2022-11-19T01:21:45.104Z,16.60
2022-11-19T01:26:47.375Z,16.60
2022-11-19T01:31:49.641Z,16.60
2022-11-19T01:36:52.315Z,16.60
2022-11-19T01:41:54.515Z,16.60
2022-11-19T01:46:56.567Z,16.70
2022-11-19T01:52:00.781Z,16.70
2022-11-19T01:57:07.712Z,16.70
2022-11-19T02:02:10.243Z,16.70
2022-11-19T02:07:13.877Z,16.70
2022-11-19T02:39:17.987Z,16.50
2022-11-19T02:49:34.033Z,16.50
2022-11-19T02:54:36.230Z,16.40
2022-11-19T03:00:07.446Z,16.30
2022-11-19T03:05:14.310Z,16.30
2022-11-19T03:10:22.208Z,16.30
2022-11-19T03:20:44.313Z,16.20
2022-11-19T03:25:54.057Z,16.20
2022-11-19T03:30:59.143Z,16.20
2022-11-19T03:36:10.571Z,16.20
2022-11-19T03:41:17.635Z,16.30
2022-11-19T03:46:22.071Z,16.30
2022-11-19T03:51:41.099Z,16.20
2022-11-19T03:56:45.175Z,16.30
2022-11-19T04:01:50.453Z,16.30
2022-11-19T04:06:52.729Z,16.20
2022-11-19T04:16:56.312Z,16.10
2022-11-19T04:21:58.564Z,16.10
2022-11-19T04:27:00.766Z,16.10
2022-11-19T04:32:03.121Z,16.00
2022-11-19T04:37:05.341Z,16.00
2022-11-19T04:42:07.548Z,16.00
2022-11-19T04:47:09.702Z,15.90
2022-11-19T04:52:11.906Z,16.00
2022-11-19T04:57:14.561Z,15.90
2022-11-19T05:02:16.731Z,15.80
2022-11-19T05:07:18.802Z,15.80
2022-11-19T05:12:21.089Z,15.80
2022-11-19T05:17:23.371Z,15.80
2022-11-19T05:22:25.622Z,15.80
2022-11-19T05:27:27.840Z,15.80
2022-11-19T05:32:30.048Z,15.90
2022-11-19T05:37:32.517Z,15.80
2022-11-19T05:42:34.724Z,15.80
2022-11-19T05:47:37.156Z,15.90
2022-11-19T05:52:39.388Z,15.90
2022-11-19T05:57:41.606Z,15.90
2022-11-19T06:02:44.083Z,16.00
2022-11-19T06:07:46.369Z,16.00
2022-11-19T06:12:48.602Z,16.00
2022-11-19T06:17:50.840Z,16.00
2022-11-19T06:22:53.046Z,16.00
2022-11-19T06:27:55.287Z,15.90
2022-11-19T06:32:57.477Z,15.80
2022-11-19T06:37:59.746Z,15.90
2022-11-19T06:43:01.995Z,15.90
2022-11-19T06:48:04.846Z,15.90
2022-11-19T06:53:07.555Z,16.10
2022-11-19T06:58:09.868Z,16.30
2022-11-19T07:03:12.066Z,16.40
2022-11-19T07:08:15.133Z,16.60
2022-11-19T07:13:17.509Z,17.00
2022-11-19T07:18:19.720Z,18.00
2022-11-19T07:23:22.114Z,20.10
2022-11-19T07:28:24.298Z,20.10
2022-11-19T07:33:26.489Z,20.80
2022-11-19T07:38:32.759Z,21.10
2022-11-19T07:43:37.974Z,21.40
2022-11-19T07:48:40.423Z,21.00
2022-11-19T07:53:43.464Z,20.60
2022-11-19T07:58:45.809Z,20.40
2022-11-19T08:03:54.891Z,20.40
2022-11-19T08:08:58.625Z,21.20
2022-11-19T08:14:02.282Z,20.90
2022-11-19T08:19:09.606Z,20.40
2022-11-19T08:24:13.813Z,19.90
2022-11-19T08:29:18.642Z,19.80
2022-11-19T08:34:22.341Z,19.60
2022-11-19T08:39:24.862Z,19.30
2022-11-19T08:44:27.143Z,19.70
2022-11-19T08:49:29.306Z,20.40
2022-11-19T08:54:31.556Z,20.80
2022-11-19T08:59:33.903Z,20.70
2022-11-19T09:04:36.960Z,20.10
2022-11-19T09:09:39.193Z,19.90
2022-11-19T09:14:41.470Z,19.60
2022-11-19T09:19:43.681Z,19.60
2022-11-19T09:24:45.893Z,19.50
2022-11-19T09:29:48.140Z,19.30
2022-11-19T09:34:50.376Z,19.20
2022-11-19T09:39:52.581Z,19.10
2022-11-19T09:45:25.488Z,19.10
2022-11-19T09:50:35.481Z,19.10
2022-11-19T09:55:44.016Z,19.00
2022-11-19T10:00:46.324Z,18.90
2022-11-19T10:11:29.244Z,18.80
2022-11-19T10:27:04.303Z,18.80
2022-11-19T10:32:38.276Z,18.90
2022-11-19T10:37:55.850Z,19.10
2022-11-19T10:48:25.483Z,19.20
2022-11-19T10:58:43.165Z,19.30
2022-11-19T11:03:54.781Z,19.30
2022-11-19T11:08:57.035Z,19.40
2022-11-19T11:14:19.860Z,19.30
2022-11-19T11:19:23.327Z,19.60
2022-11-19T11:24:38.088Z,19.60
2022-11-19T11:29:40.294Z,19.60
2022-11-19T11:34:44.022Z,19.70
2022-11-19T11:39:52.755Z,19.70
2022-11-19T11:44:59.394Z,19.70
2022-11-19T12:00:34.884Z,19.80
2022-11-19T12:06:03.236Z,19.90
2022-11-19T12:12:00.775Z,20.00
2022-11-19T12:38:15.563Z,20.10
2022-11-19T12:54:26.755Z,21.00
2022-11-19T13:04:57.814Z,20.90
2022-11-19T13:10:13.306Z,20.80
2022-11-19T13:26:06.083Z,20.50
2022-11-19T13:31:17.030Z,20.50
2022-11-19T13:36:25.592Z,20.20
2022-11-19T13:42:00.950Z,20.10
2022-11-19T13:47:03.427Z,19.90
2022-11-19T13:57:37.465Z,19.90
2022-11-19T14:08:39.695Z,19.10
2022-11-19T14:19:36.362Z,18.60
2022-11-19T14:45:22.757Z,18.50
2022-11-19T14:50:29.514Z,18.40
2022-11-19T14:55:34.640Z,18.40
2022-11-19T15:00:40.787Z,18.30
2022-11-19T15:05:46.221Z,18.20
2022-11-19T15:32:36.229Z,16.90
2022-11-19T15:38:02.568Z,16.50
2022-11-19T15:48:24.240Z,16.50
2022-11-19T15:53:28.211Z,16.30
2022-11-19T15:58:41.749Z,16.10
2022-11-19T16:03:44.438Z,16.00
2022-11-19T16:08:51.248Z,15.90
2022-11-19T16:14:14.206Z,15.60
2022-11-19T16:19:18.231Z,15.10
2022-11-19T16:24:43.928Z,14.60
2022-11-19T16:29:46.662Z,14.40
2022-11-19T16:34:49.308Z,14.40
2022-11-19T16:39:53.088Z,14.30
2022-11-19T16:45:04.854Z,14.20
2022-11-19T17:00:35.743Z,13.80
2022-11-19T17:05:45.922Z,14.10
2022-11-19T17:10:48.242Z,13.90
2022-11-19T17:16:41.673Z,13.80
2022-11-19T17:21:50.789Z,13.90
2022-11-19T17:26:53.206Z,13.80
2022-11-19T17:31:56.523Z,13.70
2022-11-19T17:36:59.694Z,13.60
2022-11-19T17:48:22.170Z,13.30
2022-11-19T17:53:24.545Z,13.30
2022-11-19T17:58:26.744Z,13.30
2022-11-19T18:03:28.941Z,13.30
2022-11-19T18:08:31.237Z,13.10
2022-11-19T18:13:36.556Z,13.10
2022-11-19T18:18:39.144Z,12.80
2022-11-19T18:23:42.072Z,12.90
2022-11-19T18:28:48.607Z,12.90
2022-11-19T18:33:51.992Z,12.90
2022-11-19T18:38:55.723Z,13.10
2022-11-19T18:44:17.857Z,13.40
2022-11-19T18:49:20.118Z,13.40
2022-11-19T18:54:22.903Z,13.20
2022-11-19T18:59:25.241Z,13.20
2022-11-19T19:04:27.573Z,13.40
2022-11-19T19:09:30.325Z,13.20
2022-11-19T19:14:32.758Z,13.40
2022-11-19T19:19:35.194Z,13.40
2022-11-19T19:24:37.780Z,13.20
2022-11-19T19:29:40.033Z,13.20
2022-11-19T19:34:42.556Z,13.30
2022-11-19T19:39:44.861Z,13.30
2022-11-19T19:44:47.145Z,13.20
2022-11-19T19:49:49.620Z,13.40
2022-11-19T19:54:51.941Z,13.40
2022-11-19T19:59:54.134Z,13.30
2022-11-19T20:04:56.369Z,13.50
2022-11-19T20:09:58.795Z,13.50
2022-11-19T20:15:01.021Z,13.80
2022-11-19T20:20:03.659Z,13.90
2022-11-19T20:25:06.410Z,13.70
2022-11-19T20:30:09.618Z,13.80
2022-11-19T20:35:11.893Z,13.90
2022-11-19T20:40:14.121Z,14.10
2022-11-19T20:45:16.383Z,14.20
2022-11-19T20:50:18.701Z,14.40
2022-11-19T20:55:20.957Z,14.40
2022-11-19T21:00:23.195Z,14.50
2022-11-19T21:05:25.475Z,14.70
2022-11-19T21:10:27.697Z,15.00
2022-11-19T21:15:33.969Z,15.30
2022-11-19T21:20:36.199Z,15.50
2022-11-19T21:25:38.493Z,15.60
2022-11-19T21:30:40.751Z,15.70
2022-11-19T21:35:43.006Z,15.80
2022-11-19T21:40:45.280Z,15.80
2022-11-19T21:45:49.051Z,16.00
2022-11-19T21:50:52.333Z,15.90
2022-11-19T21:55:57.402Z,16.00
2022-11-19T22:01:01.555Z,16.20
2022-11-19T22:12:46.013Z,16.30
2022-11-19T22:17:48.271Z,16.50
2022-11-19T22:22:50.740Z,16.60
2022-11-19T22:27:52.995Z,16.70
2022-11-19T22:32:55.669Z,16.80
2022-11-19T22:37:57.861Z,16.90
2022-11-19T22:43:00.121Z,16.90
2022-11-19T22:48:02.324Z,17.00
2022-11-19T22:53:04.557Z,17.10
2022-11-19T22:58:06.845Z,17.10
2022-11-19T23:03:10.409Z,17.10
2022-11-19T23:08:12.660Z,17.20
2022-11-19T23:13:32.422Z,17.20
2022-11-19T23:18:37.350Z,17.20
2022-11-19T23:23:40.131Z,17.10
2022-11-19T23:28:42.706Z,17.30
2022-11-19T23:33:45.867Z,17.50
2022-11-19T23:38:48.300Z,17.50
2022-11-19T23:43:52.546Z,17.70
2022-11-19T23:48:56.529Z,17.70
2022-11-19T23:53:59.179Z,17.70
2022-11-19T23:59:02.913Z,17.80
